Time;durP1;ratioP1;P1;durP2;ratioP2;P2;SDS_P1;SDS_P2;PMS_P1;PMS_P2;Temp;Humidity;BMP_temperature;BMP_pressure;BME280_temperature;BME280_humidity;BME280_pressure;Samples;Min_cycle;Max_cycle;Signal;HPM_P1;HPM_P2
2023/04/28 00:01:35;;;;;;;8.90;8.20;;;;;;;;;;4967895;28;20452;-80
2023/04/28 00:04:02;;;;;;;8.10;7.50;;;;;;;;;;4982574;28;20509;-80
2023/04/28 00:06:29;;;;;;;8.73;7.90;;;;;;;;;;4982153;28;20552;-80
2023/04/28 00:08:55;;;;;;;8.77;6.63;;;;;;;;;;4982402;28;20480;-79
2023/04/28 00:11:21;;;;;;;8.37;7.67;;;;;;;;;;4985979;28;20471;-79
2023/04/28 00:13:47;;;;;;;14.33;7.83;;;;;;;;;;4982497;28;20470;-80
2023/04/28 00:16:13;;;;;;;10.57;8.10;;;;;;;;;;4985952;28;20436;-79
2023/04/28 00:18:39;;;;;;;8.80;7.97;;;;;;;;;;4982248;28;21066;-80
2023/04/28 00:21:05;;;;;;;8.33;7.60;;;;;;;;;;4986247;28;20439;-80
2023/04/28 00:23:31;;;;;;;9.00;8.30;;;;;;;;;;4982185;28;20449;-79
2023/04/28 00:25:57;;;;;;;9.03;7.73;;;;;;;;;;4985704;28;20527;-79
2023/04/28 00:28:23;;;;;;;8.57;7.77;;;;;;;;;;4979930;28;21184;-79
2023/04/28 00:30:49;;;;;;;9.30;8.40;;;;;;;;;;4984797;28;20468;-79
2023/04/28 00:33:15;;;;;;;9.43;8.50;;;;;;;;;;4982120;28;20523;-79
2023/04/28 00:35:41;;;;;;;9.00;8.10;;;;;;;;;;4981256;28;20575;-81
2023/04/28 00:38:07;;;;;;;8.63;7.87;;;;;;;;;;4981879;28;20453;-80
2023/04/28 00:40:34;;;;;;;8.30;7.60;;;;;;;;;;4968063;28;20455;-80
2023/04/28 00:43:00;;;;;;;8.43;7.83;;;;;;;;;;4982031;28;20801;-80
2023/04/28 00:45:26;;;;;;;8.20;7.57;;;;;;;;;;4985730;28;20602;-80
2023/04/28 00:47:52;;;;;;;8.60;7.83;;;;;;;;;;4981565;28;20536;-79
2023/04/28 00:50:18;;;;;;;7.93;7.13;;;;;;;;;;4982504;28;20461;-80
2023/04/28 00:52:44;;;;;;;9.10;8.20;;;;;;;;;;4981937;28;20466;-80
2023/04/28 00:55:10;;;;;;;12.70;8.53;;;;;;;;;;4985971;28;20413;-80
2023/04/28 00:57:36;;;;;;;9.53;8.27;;;;;;;;;;4981891;28;20612;-79
2023/04/28 01:00:03;;;;;;;8.17;7.33;;;;;;;;;;4976006;28;20504;-79
2023/04/28 01:02:29;;;;;;;9.33;8.43;;;;;;;;;;4993619;28;20519;-80
2023/04/28 01:04:56;;;;;;;9.73;8.53;;;;;;;;;;5010982;28;20461;-80
2023/04/28 01:07:22;;;;;;;10.03;8.90;;;;;;;;;;4978659;28;20440;-81
2023/04/28 01:09:48;;;;;;;13.03;8.97;;;;;;;;;;4979890;28;20516;-81
2023/04/28 01:12:14;;;;;;;8.93;8.13;;;;;;;;;;4982684;28;20999;-81
2023/04/28 01:14:40;;;;;;;13.70;8.97;;;;;;;;;;4985564;28;20425;-81
2023/04/28 01:17:07;;;;;;;9.30;8.50;;;;;;;;;;4984994;28;20519;-80
2023/04/28 01:19:33;;;;;;;9.47;8.47;;;;;;;;;;4990365;28;20483;-80
2023/04/28 01:21:59;;;;;;;11.17;9.00;;;;;;;;;;4981336;28;20478;-82
2023/04/28 01:24:25;;;;;;;11.57;10.00;;;;;;;;;;4990083;28;20462;-82
2023/04/28 01:26:51;;;;;;;10.33;9.53;;;;;;;;;;4990297;28;20890;-81
2023/04/28 01:29:17;;;;;;;10.57;9.57;;;;;;;;;;4999282;28;20475;-82
2023/04/28 01:31:43;;;;;;;12.17;9.30;;;;;;;;;;5005197;28;20460;-82
2023/04/28 01:34:09;;;;;;;12.43;10.00;;;;;;;;;;5008339;28;20500;-82
2023/04/28 01:36:35;;;;;;;10.70;9.63;;;;;;;;;;5007715;28;20468;-82
2023/04/28 01:39:01;;;;;;;11.80;10.10;;;;;;;;;;5002981;28;20433;-82
2023/04/28 01:41:27;;;;;;;11.67;10.40;;;;;;;;;;5006386;28;20775;-82
2023/04/28 01:43:53;;;;;;;10.47;9.47;;;;;;;;;;5001417;28;20527;-82
2023/04/28 01:46:19;;;;;;;11.40;10.00;;;;;;;;;;5004801;28;20460;-82
2023/04/28 01:48:46;;;;;;;11.67;10.47;;;;;;;;;;5002780;28;20464;-82
2023/04/28 01:51:12;;;;;;;10.13;9.23;;;;;;;;;;4993769;28;20471;-84
2023/04/28 01:53:38;;;;;;;16.23;11.07;;;;;;;;;;4998059;28;20431;-83
2023/04/28 01:56:04;;;;;;;12.80;9.67;;;;;;;;;;5002276;28;20447;-83
2023/04/28 01:58:30;;;;;;;13.33;10.33;;;;;;;;;;5000031;28;20441;-82
2023/04/28 02:00:56;;;;;;;11.00;9.70;;;;;;;;;;4994440;28;20432;-82
2023/04/28 02:03:26;;;;;;;12.13;10.87;;;;;;;;;;5001271;28;20432;-82
2023/04/28 02:05:52;;;;;;;13.30;10.70;;;;;;;;;;5013905;28;20433;-83
2023/04/28 02:08:18;;;;;;;14.50;11.30;;;;;;;;;;5011583;28;20440;-82
2023/04/28 02:10:44;;;;;;;12.20;10.93;;;;;;;;;;5013975;28;20464;-82
2023/04/28 02:13:11;;;;;;;17.87;12.43;;;;;;;;;;5012781;28;20432;-82
2023/04/28 02:15:43;;;;;;;14.47;11.70;;;;;;;;;;5015127;28;20814;-82
2023/04/28 02:18:11;;;;;;;12.43;11.13;;;;;;;;;;5011299;28;20437;-82
2023/04/28 02:20:37;;;;;;;16.00;12.70;;;;;;;;;;5014756;28;20456;-81
2023/04/28 02:23:03;;;;;;;17.10;11.57;;;;;;;;;;5010066;28;20440;-82
2023/04/28 02:25:29;;;;;;;16.70;12.70;;;;;;;;;;5013597;28;20439;-80
2023/04/28 02:27:56;;;;;;;18.80;12.13;;;;;;;;;;5009971;28;20467;-81
2023/04/28 02:30:22;;;;;;;14.00;12.20;;;;;;;;;;5013509;28;20499;-82
2023/04/28 02:32:48;;;;;;;19.90;11.57;;;;;;;;;;5005557;28;20497;-82
2023/04/28 02:35:14;;;;;;;19.43;12.53;;;;;;;;;;5012048;28;20424;-82
2023/04/28 02:37:40;;;;;;;18.70;13.30;;;;;;;;;;5009646;28;20440;-81
2023/04/28 02:40:06;;;;;;;15.87;13.40;;;;;;;;;;5013198;28;20423;-81
2023/04/28 02:42:32;;;;;;;15.83;13.73;;;;;;;;;;5012019;28;20732;-82
2023/04/28 02:44:58;;;;;;;14.40;12.63;;;;;;;;;;5012729;28;20716;-82
2023/04/28 02:47:24;;;;;;;23.10;13.53;;;;;;;;;;5009868;28;20436;-82
2023/04/28 02:49:50;;;;;;;17.67;13.47;;;;;;;;;;5012497;28;20414;-82
2023/04/28 02:52:16;;;;;;;19.90;14.43;;;;;;;;;;5006829;28;20464;-81
2023/04/28 02:54:42;;;;;;;17.90;14.77;;;;;;;;;;4993350;28;20440;-81
2023/04/28 02:57:08;;;;;;;16.57;14.73;;;;;;;;;;5003160;28;20511;-83
2023/04/28 02:59:35;;;;;;;16.80;13.50;;;;;;;;;;4999933;28;20429;-82
2023/04/28 03:02:01;;;;;;;18.90;13.87;;;;;;;;;;4979669;28;20441;-81
2023/04/28 03:04:27;;;;;;;16.97;15.10;;;;;;;;;;5006177;28;20460;-81
2023/04/28 03:06:53;;;;;;;16.20;13.60;;;;;;;;;;5013921;28;20436;-80
2023/04/28 03:09:19;;;;;;;18.33;14.50;;;;;;;;;;5013752;28;20448;-82
2023/04/28 03:11:45;;;;;;;16.27;13.70;;;;;;;;;;5000967;28;20828;-81
2023/04/28 03:14:11;;;;;;;15.10;13.10;;;;;;;;;;4996070;28;20444;-82
2023/04/28 03:16:37;;;;;;;14.90;13.27;;;;;;;;;;5000942;28;20829;-82
2023/04/28 03:19:03;;;;;;;20.50;14.83;;;;;;;;;;5000356;28;20459;-82
2023/04/28 03:21:29;;;;;;;16.50;14.20;;;;;;;;;;5004696;28;20432;-81
2023/04/28 03:23:55;;;;;;;20.33;15.70;;;;;;;;;;5000512;28;20455;-83
2023/04/28 03:26:21;;;;;;;23.13;15.47;;;;;;;;;;5006795;28;20432;-81
2023/04/28 03:28:47;;;;;;;17.57;13.33;;;;;;;;;;5005347;28;20439;-83
2023/04/28 03:31:13;;;;;;;18.70;12.90;;;;;;;;;;5007134;28;20476;-82
2023/04/28 03:33:40;;;;;;;19.60;13.90;;;;;;;;;;5006871;28;20452;-81
2023/04/28 03:36:06;;;;;;;20.17;14.90;;;;;;;;;;5010199;28;20428;-82
2023/04/28 03:38:32;;;;;;;16.40;13.83;;;;;;;;;;5007359;28;20865;-81
2023/04/28 03:40:58;;;;;;;19.57;14.30;;;;;;;;;;5008961;28;20432;-82
2023/04/28 03:43:24;;;;;;;21.57;15.30;;;;;;;;;;5009965;28;20440;-82
2023/04/28 03:45:50;;;;;;;15.50;13.87;;;;;;;;;;5010920;28;20432;-82
2023/04/28 03:48:16;;;;;;;13.57;12.17;;;;;;;;;;5008945;28;20491;-82
2023/04/28 03:50:44;;;;;;;18.30;14.13;;;;;;;;;;5010460;28;20468;-82
2023/04/28 03:53:10;;;;;;;14.33;12.93;;;;;;;;;;5009435;28;20428;-81
2023/04/28 03:55:36;;;;;;;13.20;11.90;;;;;;;;;;5011363;28;21215;-82
2023/04/28 03:58:02;;;;;;;16.40;13.30;;;;;;;;;;5008338;28;20440;-82
2023/04/28 04:00:28;;;;;;;9.50;8.70;;;;;;;;;;5012041;28;20452;-82
2023/04/28 04:02:54;;;;;;;10.80;9.90;;;;;;;;;;5008820;28;20445;-82
2023/04/28 04:05:21;;;;;;;9.47;8.10;;;;;;;;;;5009731;28;20471;-82
2023/04/28 04:07:47;;;;;;;10.30;9.30;;;;;;;;;;5007682;28;20432;-82
2023/04/28 04:10:13;;;;;;;11.57;9.87;;;;;;;;;;5008308;28;20464;-82
2023/04/28 04:12:39;;;;;;;10.40;9.30;;;;;;;;;;5005112;28;20979;-80
2023/04/28 04:15:05;;;;;;;10.90;9.67;;;;;;;;;;5010413;28;20400;-81
2023/04/28 04:17:32;;;;;;;10.27;8.73;;;;;;;;;;5006520;28;20500;-80
2023/04/28 04:19:58;;;;;;;10.30;9.40;;;;;;;;;;5012078;28;20420;-82
2023/04/28 04:22:24;;;;;;;10.67;9.77;;;;;;;;;;5004423;28;20443;-82
2023/04/28 04:24:50;;;;;;;9.63;8.67;;;;;;;;;;5008362;28;20405;-82
2023/04/28 04:27:16;;;;;;;10.30;9.50;;;;;;;;;;5006713;28;20436;-81
2023/04/28 04:29:42;;;;;;;11.40;9.00;;;;;;;;;;5007581;28;20409;-82
2023/04/28 04:32:08;;;;;;;10.50;9.23;;;;;;;;;;5005074;28;20460;-82
2023/04/28 04:34:34;;;;;;;12.90;9.07;;;;;;;;;;5002699;28;20424;-82
2023/04/28 04:37:00;;;;;;;9.47;8.63;;;;;;;;;;4996215;28;20470;-79
2023/04/28 04:39:26;;;;;;;10.77;9.10;;;;;;;;;;5001882;28;20404;-82
2023/04/28 04:41:52;;;;;;;9.63;8.67;;;;;;;;;;4996035;28;20420;-82
2023/04/28 04:44:18;;;;;;;12.60;9.57;;;;;;;;;;4995240;28;20417;-83
2023/04/28 04:46:44;;;;;;;11.10;10.00;;;;;;;;;;4993056;28;20428;-82
2023/04/28 04:49:10;;;;;;;10.13;9.13;;;;;;;;;;4993535;28;20508;-82
2023/04/28 04:51:36;;;;;;;11.00;9.97;;;;;;;;;;4999684;28;20479;-82
2023/04/28 04:54:02;;;;;;;11.60;10.50;;;;;;;;;;4999784;28;20416;-83
2023/04/28 04:56:28;;;;;;;12.53;11.23;;;;;;;;;;4998716;28;20429;-82
2023/04/28 04:58:54;;;;;;;13.03;11.73;;;;;;;;;;4991913;28;20440;-83
2023/04/28 05:01:20;;;;;;;13.97;10.90;;;;;;;;;;5001272;28;20440;-82
2023/04/28 05:03:46;;;;;;;12.20;10.87;;;;;;;;;;5002197;28;20454;-82
2023/04/28 05:06:12;;;;;;;13.17;11.87;;;;;;;;;;5003677;28;20464;-82
2023/04/28 05:08:38;;;;;;;12.93;11.60;;;;;;;;;;4998887;28;20443;-82
2023/04/28 05:11:04;;;;;;;17.40;13.67;;;;;;;;;;5010456;28;20455;-80
2023/04/28 05:13:30;;;;;;;15.13;12.47;;;;;;;;;;5016643;28;20447;-81
2023/04/28 05:15:56;;;;;;;13.87;12.47;;;;;;;;;;5013811;28;20877;-82
2023/04/28 05:18:22;;;;;;;13.97;12.87;;;;;;;;;;5004948;28;20451;-83
2023/04/28 05:20:48;;;;;;;14.40;12.90;;;;;;;;;;4994908;28;21151;-83
2023/04/28 05:23:14;;;;;;;14.30;12.73;;;;;;;;;;4971461;28;20467;-82
2023/04/28 05:25:40;;;;;;;13.10;10.70;;;;;;;;;;4993670;28;20436;-83
2023/04/28 05:28:09;;;;;;;14.80;12.90;;;;;;;;;;4990053;28;20440;-82
2023/04/28 05:30:35;;;;;;;15.23;12.30;;;;;;;;;;4991788;28;20463;-83
2023/04/28 05:33:01;;;;;;;16.80;12.03;;;;;;;;;;4988652;28;20432;-83
2023/04/28 05:35:29;;;;;;;12.17;11.07;;;;;;;;;;4984990;28;20561;-80
2023/04/28 05:37:55;;;;;;;14.20;12.53;;;;;;;;;;4971091;28;21019;-84
2023/04/28 05:40:29;;;;;;;13.57;12.27;;;;;;;;;;4989271;28;20523;-83
2023/04/28 05:42:55;;;;;;;12.53;11.23;;;;;;;;;;4977761;28;20452;-81
2023/04/28 05:45:22;;;;;;;12.83;10.67;;;;;;;;;;4984074;28;20507;-83
2023/04/28 05:47:48;;;;;;;13.17;12.07;;;;;;;;;;4984786;28;20972;-84
2023/04/28 05:50:14;;;;;;;13.03;12.00;;;;;;;;;;4986233;28;20471;-81
2023/04/28 05:52:40;;;;;;;13.00;11.80;;;;;;;;;;4980275;28;20436;-81
2023/04/28 05:55:07;;;;;;;13.10;11.80;;;;;;;;;;4984110;28;20424;-84
2023/04/28 05:57:33;;;;;;;14.43;13.03;;;;;;;;;;4985084;28;20441;-82
2023/04/28 05:59:59;;;;;;;14.33;12.43;;;;;;;;;;4991413;28;20829;-82
2023/04/28 06:02:25;;;;;;;14.67;12.07;;;;;;;;;;4963095;28;20465;-82
2023/04/28 06:04:51;;;;;;;13.17;11.97;;;;;;;;;;4984085;28;20479;-83
2023/04/28 06:07:17;;;;;;;14.00;11.37;;;;;;;;;;4986200;28;20448;-83
2023/04/28 06:09:43;;;;;;;12.47;11.40;;;;;;;;;;4984895;28;20442;-83
2023/04/28 06:12:09;;;;;;;13.80;12.43;;;;;;;;;;4985281;28;20618;-82
2023/04/28 06:14:36;;;;;;;13.97;12.57;;;;;;;;;;4981060;28;20434;-82
2023/04/28 06:17:02;;;;;;;12.20;11.23;;;;;;;;;;4981464;28;20448;-81
2023/04/28 06:19:28;;;;;;;13.13;11.83;;;;;;;;;;4989336;28;20689;-83
2023/04/28 06:21:54;;;;;;;13.83;12.53;;;;;;;;;;4984373;28;20448;-83
2023/04/28 06:24:20;;;;;;;11.53;10.47;;;;;;;;;;4983724;28;20421;-85
2023/04/28 06:26:46;;;;;;;13.37;12.17;;;;;;;;;;4981199;28;20813;-81
2023/04/28 06:29:19;;;;;;;14.80;11.43;;;;;;;;;;4971174;28;20420;-80
2023/04/28 06:31:45;;;;;;;30.00;20.80;;;;;;;;;;4974915;28;20468;-81
2023/04/28 06:34:11;;;;;;;12.40;11.40;;;;;;;;;;4980307;28;20761;-81
2023/04/28 06:36:37;;;;;;;11.53;10.53;;;;;;;;;;4984425;28;20417;-80
2023/04/28 06:39:04;;;;;;;10.70;9.73;;;;;;;;;;4984904;28;20440;-81
2023/04/28 06:41:30;;;;;;;9.63;8.73;;;;;;;;;;4976312;28;20480;-81
2023/04/28 06:43:56;;;;;;;9.37;8.77;;;;;;;;;;4986565;28;20437;-80
2023/04/28 06:46:22;;;;;;;9.23;8.27;;;;;;;;;;4977408;28;20532;-82
2023/04/28 06:48:48;;;;;;;8.77;7.97;;;;;;;;;;4975619;28;20428;-81
2023/04/28 06:51:15;;;;;;;9.07;8.27;;;;;;;;;;4972099;28;20477;-81
2023/04/28 06:53:41;;;;;;;8.27;7.67;;;;;;;;;;4982771;28;21027;-83
2023/04/28 06:56:07;;;;;;;9.27;8.67;;;;;;;;;;4979229;28;20437;-82
2023/04/28 06:58:33;;;;;;;8.90;8.27;;;;;;;;;;4976789;28;20444;-80
2023/04/28 07:00:59;;;;;;;9.77;8.77;;;;;;;;;;4979025;28;20448;-82
2023/04/28 07:03:26;;;;;;;10.40;9.50;;;;;;;;;;4979458;28;20513;-81
2023/04/28 07:05:52;;;;;;;9.50;8.73;;;;;;;;;;4979991;28;20472;-81
2023/04/28 07:08:18;;;;;;;8.13;7.40;;;;;;;;;;4978201;28;20433;-81
2023/04/28 07:10:44;;;;;;;8.00;7.40;;;;;;;;;;4983733;28;20988;-80
2023/04/28 07:13:11;;;;;;;7.83;7.30;;;;;;;;;;4976407;28;20837;-81
2023/04/28 07:15:37;;;;;;;6.37;5.87;;;;;;;;;;4991432;28;20442;-81
2023/04/28 07:18:03;;;;;;;7.80;7.10;;;;;;;;;;5000073;28;20468;-80
2023/04/28 07:20:29;;;;;;;6.10;5.80;;;;;;;;;;4999942;28;20436;-81
2023/04/28 07:22:55;;;;;;;6.40;5.93;;;;;;;;;;4956823;28;20517;-80
2023/04/28 07:25:21;;;;;;;7.33;6.93;;;;;;;;;;4973313;28;20536;-80
2023/04/28 07:27:47;;;;;;;6.67;6.00;;;;;;;;;;4969084;28;21045;-81
2023/04/28 07:30:13;;;;;;;6.13;5.87;;;;;;;;;;4977867;28;20440;-81
2023/04/28 07:32:39;;;;;;;5.40;5.20;;;;;;;;;;4969299;28;20437;-81
2023/04/28 07:35:06;;;;;;;6.03;5.80;;;;;;;;;;4973925;28;20516;-82
2023/04/28 07:37:35;;;;;;;6.80;6.30;;;;;;;;;;4979212;28;20459;-81
2023/04/28 07:40:01;;;;;;;7.13;6.80;;;;;;;;;;4972911;28;20642;-81
2023/04/28 07:42:27;;;;;;;6.60;6.20;;;;;;;;;;4978240;28;20844;-81
2023/04/28 07:44:53;;;;;;;7.77;7.27;;;;;;;;;;4977787;28;20433;-80
2023/04/28 07:47:19;;;;;;;8.00;7.30;;;;;;;;;;4972806;28;20456;-80
2023/04/28 07:49:45;;;;;;;8.93;8.13;;;;;;;;;;4975433;28;20425;-81
2023/04/28 07:52:11;;;;;;;7.63;7.10;;;;;;;;;;4979730;28;20479;-81
2023/04/28 07:54:37;;;;;;;9.90;9.10;;;;;;;;;;4972569;28;20508;-80
2023/04/28 07:57:04;;;;;;;6.93;6.53;;;;;;;;;;4980950;28;20852;-80
2023/04/28 07:59:31;;;;;;;6.87;6.33;;;;;;;;;;4980657;28;20801;-80
2023/04/28 08:01:57;;;;;;;7.70;6.90;;;;;;;;;;4975940;28;20444;-81
2023/04/28 08:04:23;;;;;;;7.00;6.40;;;;;;;;;;4964245;28;20571;-81
2023/04/28 08:06:49;;;;;;;7.73;6.67;;;;;;;;;;4966328;28;20485;-79
2023/04/28 08:09:15;;;;;;;7.90;7.30;;;;;;;;;;4979187;28;20447;-81
2023/04/28 08:11:41;;;;;;;7.93;6.53;;;;;;;;;;4975961;28;20480;-80
2023/04/28 08:14:07;;;;;;;6.90;6.23;;;;;;;;;;4973055;28;20448;-80
2023/04/28 08:16:37;;;;;;;8.20;7.50;;;;;;;;;;4976274;28;20416;-80
2023/04/28 08:19:03;;;;;;;7.07;6.57;;;;;;;;;;4977664;28;20226;-81
2023/04/28 08:21:29;;;;;;;6.43;5.93;;;;;;;;;;4949847;28;20837;-80
2023/04/28 08:23:55;;;;;;;8.03;6.93;;;;;;;;;;4968966;28;20437;-81
2023/04/28 08:26:23;;;;;;;7.13;6.60;;;;;;;;;;4985466;28;20705;-82
2023/04/28 08:28:50;;;;;;;8.07;6.90;;;;;;;;;;4985265;28;20482;-79
2023/04/28 08:31:16;;;;;;;6.90;6.57;;;;;;;;;;4964401;28;20475;-80
2023/04/28 08:33:43;;;;;;;9.47;8.77;;;;;;;;;;4977046;28;20444;-79
2023/04/28 08:36:10;;;;;;;8.27;7.57;;;;;;;;;;4968724;28;20448;-79
2023/04/28 08:38:38;;;;;;;8.00;7.03;;;;;;;;;;4975665;28;20891;-81
2023/04/28 08:41:04;;;;;;;9.83;7.27;;;;;;;;;;4986967;28;20452;-80
2023/04/28 08:43:32;;;;;;;7.77;7.20;;;;;;;;;;4971816;28;20441;-77
2023/04/28 08:45:59;;;;;;;8.70;8.10;;;;;;;;;;4987038;28;20506;-79
2023/04/28 08:48:26;;;;;;;8.87;6.87;;;;;;;;;;4981178;28;20491;-80
2023/04/28 08:50:53;;;;;;;10.60;7.30;;;;;;;;;;4976122;28;20534;-80
2023/04/28 08:53:25;;;;;;;7.07;6.30;;;;;;;;;;4982021;28;20436;-80
2023/04/28 08:55:55;;;;;;;7.17;6.47;;;;;;;;;;4984436;28;20798;-82
2023/04/28 08:58:25;;;;;;;6.00;5.63;;;;;;;;;;4975824;28;20481;-77
2023/04/28 09:00:52;;;;;;;7.83;7.23;;;;;;;;;;4974553;28;20754;-79
2023/04/28 09:03:18;;;;;;;7.37;6.73;;;;;;;;;;4979392;28;20464;-79
2023/04/28 09:05:44;;;;;;;6.70;6.30;;;;;;;;;;4984476;28;20521;-78
2023/04/28 09:08:11;;;;;;;7.17;6.57;;;;;;;;;;4967853;28;20806;-79
2023/04/28 09:10:37;;;;;;;7.20;6.80;;;;;;;;;;4985382;28;20483;-79
2023/04/28 09:13:04;;;;;;;7.23;6.80;;;;;;;;;;4985921;28;20459;-81
2023/04/28 09:15:30;;;;;;;8.00;7.20;;;;;;;;;;4974586;28;20935;-78
2023/04/28 09:17:56;;;;;;;8.23;7.30;;;;;;;;;;4980696;28;20987;-79
2023/04/28 09:20:23;;;;;;;7.40;7.00;;;;;;;;;;4980246;28;20448;-78
2023/04/28 09:22:49;;;;;;;7.97;7.27;;;;;;;;;;4982931;28;20432;-78
2023/04/28 09:25:16;;;;;;;8.87;8.07;;;;;;;;;;4982136;28;20464;-78
2023/04/28 09:27:42;;;;;;;8.10;7.27;;;;;;;;;;4991086;28;20447;-79
2023/04/28 09:30:11;;;;;;;7.77;6.80;;;;;;;;;;4993476;28;20408;-78
2023/04/28 09:32:37;;;;;;;8.07;7.43;;;;;;;;;;4982419;28;20437;-78
2023/04/28 09:35:03;;;;;;;9.10;8.27;;;;;;;;;;4975401;28;20431;-77
2023/04/28 09:37:30;;;;;;;8.93;8.17;;;;;;;;;;4979194;28;20431;-77
2023/04/28 09:40:03;;;;;;;11.33;10.20;;;;;;;;;;4985320;28;20912;-79
2023/04/28 09:42:35;;;;;;;8.57;7.87;;;;;;;;;;4942717;28;20473;-79
2023/04/28 09:45:02;;;;;;;9.50;8.80;;;;;;;;;;4954954;28;20441;-83
2023/04/28 09:47:28;;;;;;;9.30;8.60;;;;;;;;;;4965179;28;20438;-79
2023/04/28 09:49:59;;;;;;;8.00;7.40;;;;;;;;;;4958804;28;20411;-79
2023/04/28 09:52:26;;;;;;;8.13;7.27;;;;;;;;;;4952964;28;20502;-78
2023/04/28 09:54:53;;;;;;;8.13;7.40;;;;;;;;;;4963083;28;20974;-79
2023/04/28 09:57:20;;;;;;;8.83;8.13;;;;;;;;;;4954316;28;20434;-78
2023/04/28 09:59:53;;;;;;;8.57;7.70;;;;;;;;;;4962616;28;20438;-78
2023/04/28 10:02:21;;;;;;;10.77;7.93;;;;;;;;;;4956433;28;20449;-78
2023/04/28 10:04:48;;;;;;;9.17;8.37;;;;;;;;;;4942719;28;21019;-79
2023/04/28 10:07:15;;;;;;;10.37;7.60;;;;;;;;;;4942525;28;20836;-79
2023/04/28 10:09:49;;;;;;;8.10;7.37;;;;;;;;;;4963774;28;20441;-80
2023/04/28 10:12:15;;;;;;;7.47;6.93;;;;;;;;;;4961387;28;20476;-80
2023/04/28 10:14:41;;;;;;;9.10;8.20;;;;;;;;;;4966906;28;20583;-79
2023/04/28 10:17:08;;;;;;;8.67;7.93;;;;;;;;;;4955834;28;20481;-80
2023/04/28 10:19:34;;;;;;;9.83;8.60;;;;;;;;;;4954333;28;20460;-80
2023/04/28 10:22:19;;;;;;;8.70;8.10;;;;;;;;;;4955951;28;20777;-79
2023/04/28 10:25:05;;;;;;;7.90;7.40;;;;;;;;;;4961183;28;20428;-79
2023/04/28 10:27:31;;;;;;;8.50;7.90;;;;;;;;;;4954554;28;20445;-78
2023/04/28 10:30:17;;;;;;;10.20;9.30;;;;;;;;;;4961814;28;20757;-79
2023/04/28 10:32:44;;;;;;;10.47;9.60;;;;;;;;;;4958041;28;20202;-79
2023/04/28 10:35:29;;;;;;;11.60;10.70;;;;;;;;;;4955507;28;20427;-79
2023/04/28 10:38:04;;;;;;;9.87;8.87;;;;;;;;;;4950992;28;20210;-81
2023/04/28 10:40:31;;;;;;;10.20;9.47;;;;;;;;;;4950415;28;20508;-79
2023/04/28 10:42:57;;;;;;;9.93;9.33;;;;;;;;;;4963885;28;20461;-79
2023/04/28 10:45:42;;;;;;;10.83;9.87;;;;;;;;;;4965787;28;20840;-78
2023/04/28 10:48:08;;;;;;;10.27;9.33;;;;;;;;;;4963091;28;20807;-79
2023/04/28 10:50:36;;;;;;;9.83;9.00;;;;;;;;;;4959711;28;20474;-79
2023/04/28 10:53:03;;;;;;;11.73;10.63;;;;;;;;;;4958416;28;20810;-78
2023/04/28 10:55:31;;;;;;;11.33;9.63;;;;;;;;;;4967373;28;20785;-80
2023/04/28 10:58:16;;;;;;;11.13;10.10;;;;;;;;;;4965565;28;20941;-81
2023/04/28 11:00:54;;;;;;;11.17;10.07;;;;;;;;;;4959746;28;20465;-82
2023/04/28 11:03:38;;;;;;;10.17;9.33;;;;;;;;;;4967225;28;20436;-82
2023/04/28 11:06:25;;;;;;;11.50;10.60;;;;;;;;;;4973629;28;20528;-81
2023/04/28 11:08:52;;;;;;;13.10;12.10;;;;;;;;;;4957049;28;20431;-79
2023/04/28 11:11:19;;;;;;;15.27;13.68;;;;;;;;;;4970161;28;20416;-82
2023/04/28 11:13:46;;;;;;;12.50;11.43;;;;;;;;;;4942092;28;20193;-81
2023/04/28 11:16:16;;;;;;;15.10;13.43;;;;;;;;;;4970234;28;20431;-82
2023/04/28 11:18:49;;;;;;;12.27;11.17;;;;;;;;;;4969072;28;20460;-83
2023/04/28 11:21:16;;;;;;;12.73;11.80;;;;;;;;;;4944252;28;20536;-83
2023/04/28 11:23:43;;;;;;;13.80;12.50;;;;;;;;;;4964138;28;20453;-81
2023/04/28 11:26:09;;;;;;;15.90;14.70;;;;;;;;;;4965283;28;20404;-81
2023/04/28 11:28:36;;;;;;;12.47;11.27;;;;;;;;;;4961869;28;20478;-82
2023/04/28 11:31:19;;;;;;;13.77;12.40;;;;;;;;;;4949418;28;20465;-80
2023/04/28 11:33:59;;;;;;;15.03;13.30;;;;;;;;;;4966616;28;20444;-82
2023/04/28 11:36:26;;;;;;;13.77;12.60;;;;;;;;;;4970036;28;20454;-80
2023/04/28 11:38:53;;;;;;;12.90;11.77;;;;;;;;;;4972482;28;20466;-81
2023/04/28 11:41:19;;;;;;;14.90;13.80;;;;;;;;;;4964025;28;20409;-78
2023/04/28 11:43:45;;;;;;;15.35;14.18;;;;;;;;;;4958011;28;20424;-80
2023/04/28 11:46:16;;;;;;;11.80;10.60;;;;;;;;;;4965158;28;20186;-80
2023/04/28 11:48:42;;;;;;;12.37;10.90;;;;;;;;;;4950868;28;20433;-78
2023/04/28 11:51:08;;;;;;;12.30;11.37;;;;;;;;;;4954603;28;20465;-78
2023/04/28 11:53:44;;;;;;;12.43;11.23;;;;;;;;;;4963197;28;20445;-78
2023/04/28 11:56:13;;;;;;;75.80;53.60;;;;;;;;;;4938432;28;21048;-78
2023/04/28 11:58:39;;;;;;;14.80;13.60;;;;;;;;;;4949920;28;20735;-78
2023/04/28 12:01:08;;;;;;;14.50;13.37;;;;;;;;;;4952923;28;20414;-79
2023/04/28 12:03:43;;;;;;;14.03;12.83;;;;;;;;;;4958929;28;20460;-78
2023/04/28 12:06:09;;;;;;;15.70;14.47;;;;;;;;;;4958182;28;20469;-77
2023/04/28 12:08:35;;;;;;;14.53;13.53;;;;;;;;;;4940711;28;20902;-78
2023/04/28 12:11:12;;;;;;;17.23;15.63;;;;;;;;;;4965782;28;20511;-81
2023/04/28 12:13:38;;;;;;;16.80;15.50;;;;;;;;;;4948666;28;20520;-82
2023/04/28 12:16:06;;;;;;;16.60;15.00;;;;;;;;;;4957209;28;20445;-82
2023/04/28 12:18:35;;;;;;;16.53;15.13;;;;;;;;;;4952916;28;20530;-82
2023/04/28 12:21:02;;;;;;;14.90;13.70;;;;;;;;;;4958988;28;20434;-81
2023/04/28 12:23:31;;;;;;;15.03;13.97;;;;;;;;;;4956256;28;20781;-83
2023/04/28 12:25:58;;;;;;;15.23;14.03;;;;;;;;;;4962933;28;20518;-81
2023/04/28 12:28:36;;;;;;;15.00;13.87;;;;;;;;;;4961461;28;20608;-81
2023/04/28 12:31:03;;;;;;;14.07;12.97;;;;;;;;;;4950342;28;20531;-81
2023/04/28 12:33:29;;;;;;;13.20;12.17;;;;;;;;;;4959462;28;20438;-81
2023/04/28 12:35:56;;;;;;;13.20;12.10;;;;;;;;;;4967209;28;20551;-82
2023/04/28 12:38:22;;;;;;;11.27;10.63;;;;;;;;;;4947281;28;21040;-80
2023/04/28 12:40:48;;;;;;;12.77;11.63;;;;;;;;;;4963658;28;20464;-81
2023/04/28 12:43:14;;;;;;;11.70;10.70;;;;;;;;;;4949653;28;20536;-80
2023/04/28 12:45:41;;;;;;;13.83;12.60;;;;;;;;;;4951589;28;20418;-82
2023/04/28 12:48:07;;;;;;;13.13;12.23;;;;;;;;;;4961492;28;20437;-81
2023/04/28 12:50:33;;;;;;;13.70;12.60;;;;;;;;;;4959293;28;20513;-82
2023/04/28 12:52:59;;;;;;;13.60;12.43;;;;;;;;;;4957036;28;20491;-82
2023/04/28 12:55:28;;;;;;;12.60;11.70;;;;;;;;;;4967897;28;20956;-82
2023/04/28 12:57:55;;;;;;;14.10;13.10;;;;;;;;;;4961026;28;20537;-84
2023/04/28 13:00:22;;;;;;;15.73;14.43;;;;;;;;;;4967421;28;20440;-85
2023/04/28 13:02:48;;;;;;;15.10;14.00;;;;;;;;;;4958718;28;20579;-81
2023/04/28 13:05:14;;;;;;;18.67;17.07;;;;;;;;;;4957124;28;20588;-84
2023/04/28 13:07:41;;;;;;;18.63;17.23;;;;;;;;;;4954298;28;20465;-82
2023/04/28 13:10:07;;;;;;;22.87;20.73;;;;;;;;;;4960861;28;20487;-79
2023/04/28 13:12:33;;;;;;;22.57;20.47;;;;;;;;;;4958045;28;20657;-81
2023/04/28 13:15:03;;;;;;;26.07;23.80;;;;;;;;;;4962175;28;20457;-81
2023/04/28 13:17:29;;;;;;;24.37;22.13;;;;;;;;;;4953608;28;20432;-80
2023/04/28 13:19:55;;;;;;;24.37;22.40;;;;;;;;;;4957792;28;20433;-82
2023/04/28 13:22:21;;;;;;;24.20;22.20;;;;;;;;;;4957856;28;20476;-80
2023/04/28 13:24:48;;;;;;;24.67;22.67;;;;;;;;;;4965770;28;20456;-79
2023/04/28 13:27:14;;;;;;;22.10;20.30;;;;;;;;;;4968260;28;20429;-81
2023/04/28 13:29:40;;;;;;;20.90;19.30;;;;;;;;;;4964065;28;20548;-82
2023/04/28 13:32:06;;;;;;;21.67;19.73;;;;;;;;;;4956972;28;20545;-81
2023/04/28 13:34:33;;;;;;;22.37;20.77;;;;;;;;;;4955731;28;20441;-80
2023/04/28 13:36:59;;;;;;;17.50;16.40;;;;;;;;;;4955511;28;20525;-81
2023/04/28 13:39:25;;;;;;;16.90;15.70;;;;;;;;;;4943566;28;20557;-81
2023/04/28 13:41:51;;;;;;;15.90;14.70;;;;;;;;;;4954396;28;20422;-81
2023/04/28 13:44:17;;;;;;;14.47;13.37;;;;;;;;;;4965695;28;20437;-81
2023/04/28 13:46:43;;;;;;;13.27;12.47;;;;;;;;;;4967588;29;20433;-80
2023/04/28 13:49:09;;;;;;;14.17;13.13;;;;;;;;;;4983080;28;20510;-80
2023/04/28 13:51:35;;;;;;;13.87;12.77;;;;;;;;;;4969160;28;20480;-80
2023/04/28 13:54:03;;;;;;;12.20;11.43;;;;;;;;;;4966074;28;20425;-81
2023/04/28 13:56:32;;;;;;;10.03;9.53;;;;;;;;;;4959940;28;20426;-79
2023/04/28 13:58:58;;;;;;;10.90;10.30;;;;;;;;;;4937319;28;20886;-80
2023/04/28 14:01:24;;;;;;;11.67;10.80;;;;;;;;;;4965818;28;20517;-80
2023/04/28 14:03:50;;;;;;;14.47;13.40;;;;;;;;;;4948407;28;20433;-80
2023/04/28 14:06:16;;;;;;;12.57;11.77;;;;;;;;;;4948085;28;20847;-80
2023/04/28 14:08:42;;;;;;;12.80;11.80;;;;;;;;;;4950558;28;20433;-80
2023/04/28 14:11:08;;;;;;;12.13;11.40;;;;;;;;;;4938603;29;20517;-80
2023/04/28 14:13:34;;;;;;;11.93;11.13;;;;;;;;;;4958428;28;20513;-83
2023/04/28 14:16:01;;;;;;;11.60;10.80;;;;;;;;;;4963722;28;20448;-83
2023/04/28 14:18:27;;;;;;;12.00;11.20;;;;;;;;;;4948867;29;20438;-83
2023/04/28 14:20:53;;;;;;;12.77;11.87;;;;;;;;;;4954924;28;20484;-81
2023/04/28 14:23:20;;;;;;;14.77;13.73;;;;;;;;;;4948465;28;20457;-84
2023/04/28 14:25:46;;;;;;;13.97;12.83;;;;;;;;;;4964171;28;20711;-81
2023/04/28 14:28:12;;;;;;;13.43;12.43;;;;;;;;;;4954067;28;20444;-81